Terminal Aerodrome Forecast
Issued by NWS Twin Cities, MN

Home | Current Version | Previous Version | Text Only | Print | Product List | Glossary On
Versions: 1 2 3 4 5 6 7 8 9 10 11 12 13 14
609
FTUS43 KMPX 220631 AAA
TAFSTC
TAF AMD
KSTC 220631Z 2207/2306 02006KT P6SM OVC100
      TEMPO 2207/2208 OVC010
     FM220800 02007KT P6SM OVC009
     FM221200 02012KT P6SM OVC008
     FM221800 01015G26KT P6SM OVC010
     FM230400 35012G20KT P6SM BKN060=

USA.gov is the U.S. government's official web portal to all federal, state and local government web resources and services.